sensor_id;sensor_type;location;lat;lon;timestamp;temperature;humidity
25346;DHT22;13300;51.032;3.710;2024-02-21T00:01:08;10.60;99.90
25346;DHT22;13300;51.032;3.710;2024-02-21T00:03:33;10.50;99.90
25346;DHT22;13300;51.032;3.710;2024-02-21T00:05:59;10.40;99.90
25346;DHT22;13300;51.032;3.710;2024-02-21T00:08:25;10.30;99.90
25346;DHT22;13300;51.032;3.710;2024-02-21T00:10:50;10.30;99.90
25346;DHT22;13300;51.032;3.710;2024-02-21T00:13:17;10.30;99.90
25346;DHT22;13300;51.032;3.710;2024-02-21T00:15:42;10.30;99.90
25346;DHT22;13300;51.032;3.710;2024-02-21T00:18:08;10.30;99.90
25346;DHT22;13300;51.032;3.710;2024-02-21T00:20:36;10.30;99.90
25346;DHT22;13300;51.032;3.710;2024-02-21T00:23:02;10.30;99.90
25346;DHT22;13300;51.032;3.710;2024-02-21T00:25:28;10.40;99.90
25346;DHT22;13300;51.032;3.710;2024-02-21T00:27:53;10.40;99.90
25346;DHT22;13300;51.032;3.710;2024-02-21T00:30:19;10.30;99.90
25346;DHT22;13300;51.032;3.710;2024-02-21T00:32:45;10.10;99.90
25346;DHT22;13300;51.032;3.710;2024-02-21T00:35:10;10.00;99.90
25346;DHT22;13300;51.032;3.710;2024-02-21T00:37:36;10.00;99.90
25346;DHT22;13300;51.032;3.710;2024-02-21T00:40:02;10.00;99.90
25346;DHT22;13300;51.032;3.710;2024-02-21T00:42:27;10.00;99.90
25346;DHT22;13300;51.032;3.710;2024-02-21T00:44:53;10.00;99.90
25346;DHT22;13300;51.032;3.710;2024-02-21T00:47:19;9.90;99.90
25346;DHT22;13300;51.032;3.710;2024-02-21T00:49:44;9.90;99.90
25346;DHT22;13300;51.032;3.710;2024-02-21T00:52:10;9.90;99.90
25346;DHT22;13300;51.032;3.710;2024-02-21T00:54:36;9.80;99.90
25346;DHT22;13300;51.032;3.710;2024-02-21T00:57:01;9.80;99.90
25346;DHT22;13300;51.032;3.710;2024-02-21T00:59:27;9.80;99.90
25346;DHT22;13300;51.032;3.710;2024-02-21T01:01:53;9.80;99.90
25346;DHT22;13300;51.032;3.710;2024-02-21T01:04:19;9.70;99.90
25346;DHT22;13300;51.032;3.710;2024-02-21T01:06:50;9.70;99.90
25346;DHT22;13300;51.032;3.710;2024-02-21T01:09:15;9.70;99.90
25346;DHT22;13300;51.032;3.710;2024-02-21T01:11:41;9.60;99.90
25346;DHT22;13300;51.032;3.710;2024-02-21T01:14:07;9.60;99.90
25346;DHT22;13300;51.032;3.710;2024-02-21T01:16:32;9.50;99.90
25346;DHT22;13300;51.032;3.710;2024-02-21T01:18:58;9.50;99.90
25346;DHT22;13300;51.032;3.710;2024-02-21T01:21:24;9.40;99.90
25346;DHT22;13300;51.032;3.710;2024-02-21T01:23:49;9.40;99.90
25346;DHT22;13300;51.032;3.710;2024-02-21T01:26:15;9.50;99.90
25346;DHT22;13300;51.032;3.710;2024-02-21T01:28:41;9.50;99.90
25346;DHT22;13300;51.032;3.710;2024-02-21T01:31:07;9.40;99.90
25346;DHT22;13300;51.032;3.710;2024-02-21T01:33:33;9.40;99.90
25346;DHT22;13300;51.032;3.710;2024-02-21T01:36:01;9.40;99.90
25346;DHT22;13300;51.032;3.710;2024-02-21T01:38:28;9.40;99.90
25346;DHT22;13300;51.032;3.710;2024-02-21T01:40:54;9.40;99.90
25346;DHT22;13300;51.032;3.710;2024-02-21T01:43:20;9.40;99.90
25346;DHT22;13300;51.032;3.710;2024-02-21T01:45:53;9.40;99.90
25346;DHT22;13300;51.032;3.710;2024-02-21T01:48:24;9.50;99.90
25346;DHT22;13300;51.032;3.710;2024-02-21T01:50:51;9.50;99.90
25346;DHT22;13300;51.032;3.710;2024-02-21T01:53:21;9.50;99.90
25346;DHT22;13300;51.032;3.710;2024-02-21T01:55:47;9.40;99.90
25346;DHT22;13300;51.032;3.710;2024-02-21T01:58:14;9.40;99.90
25346;DHT22;13300;51.032;3.710;2024-02-21T02:00:44;9.40;99.90
25346;DHT22;13300;51.032;3.710;2024-02-21T02:03:11;9.40;99.90
25346;DHT22;13300;51.032;3.710;2024-02-21T02:05:47;9.50;99.90
25346;DHT22;13300;51.032;3.710;2024-02-21T02:08:14;9.50;99.90
25346;DHT22;13300;51.032;3.710;2024-02-21T02:10:40;9.50;99.90
25346;DHT22;13300;51.032;3.710;2024-02-21T02:13:06;9.50;99.90
25346;DHT22;13300;51.032;3.710;2024-02-21T02:15:42;9.60;99.90
25346;DHT22;13300;51.032;3.710;2024-02-21T02:18:09;9.60;99.90
25346;DHT22;13300;51.032;3.710;2024-02-21T02:20:35;9.60;99.90
25346;DHT22;13300;51.032;3.710;2024-02-21T02:23:11;9.50;99.90
25346;DHT22;13300;51.032;3.710;2024-02-21T02:25:38;9.50;99.90
25346;DHT22;13300;51.032;3.710;2024-02-21T02:28:05;9.50;99.90
25346;DHT22;13300;51.032;3.710;2024-02-21T02:30:35;9.40;99.90
25346;DHT22;13300;51.032;3.710;2024-02-21T02:33:04;9.40;99.90
25346;DHT22;13300;51.032;3.710;2024-02-21T02:35:30;9.40;99.90
25346;DHT22;13300;51.032;3.710;2024-02-21T02:37:56;9.40;99.90
25346;DHT22;13300;51.032;3.710;2024-02-21T02:40:22;9.40;99.90
25346;DHT22;13300;51.032;3.710;2024-02-21T02:42:49;9.40;99.90
25346;DHT22;13300;51.032;3.710;2024-02-21T02:45:15;9.30;99.90
25346;DHT22;13300;51.032;3.710;2024-02-21T02:47:41;9.30;99.90
25346;DHT22;13300;51.032;3.710;2024-02-21T02:50:07;9.20;99.90
25346;DHT22;13300;51.032;3.710;2024-02-21T02:52:33;9.20;99.90
25346;DHT22;13300;51.032;3.710;2024-02-21T02:54:59;9.10;99.90
25346;DHT22;13300;51.032;3.710;2024-02-21T02:57:25;9.10;99.90
25346;DHT22;13300;51.032;3.710;2024-02-21T02:59:51;9.00;99.90
25346;DHT22;13300;51.032;3.710;2024-02-21T03:02:17;9.10;99.90
25346;DHT22;13300;51.032;3.710;2024-02-21T03:04:43;9.10;99.90
25346;DHT22;13300;51.032;3.710;2024-02-21T03:07:09;9.00;99.90
25346;DHT22;13300;51.032;3.710;2024-02-21T03:09:39;9.10;99.90
25346;DHT22;13300;51.032;3.710;2024-02-21T03:12:06;9.10;99.90
25346;DHT22;13300;51.032;3.710;2024-02-21T03:14:32;9.20;99.90
25346;DHT22;13300;51.032;3.710;2024-02-21T03:16:58;9.10;99.90
25346;DHT22;13300;51.032;3.710;2024-02-21T03:19:24;9.10;99.90
25346;DHT22;13300;51.032;3.710;2024-02-21T03:21:51;9.10;99.90
25346;DHT22;13300;51.032;3.710;2024-02-21T03:24:17;9.00;99.90
25346;DHT22;13300;51.032;3.710;2024-02-21T03:26:43;9.00;99.90
25346;DHT22;13300;51.032;3.710;2024-02-21T03:29:10;9.10;99.90
25346;DHT22;13300;51.032;3.710;2024-02-21T03:31:35;9.10;99.90
25346;DHT22;13300;51.032;3.710;2024-02-21T03:34:01;9.10;99.90
25346;DHT22;13300;51.032;3.710;2024-02-21T03:36:27;9.30;99.90
25346;DHT22;13300;51.032;3.710;2024-02-21T03:38:54;9.20;99.90
25346;DHT22;13300;51.032;3.710;2024-02-21T03:41:20;9.30;99.90
25346;DHT22;13300;51.032;3.710;2024-02-21T03:43:46;9.40;99.90
25346;DHT22;13300;51.032;3.710;2024-02-21T03:46:11;9.40;99.90
25346;DHT22;13300;51.032;3.710;2024-02-21T03:48:37;9.50;99.90
25346;DHT22;13300;51.032;3.710;2024-02-21T03:51:03;9.50;99.90
25346;DHT22;13300;51.032;3.710;2024-02-21T03:53:28;9.50;99.90
25346;DHT22;13300;51.032;3.710;2024-02-21T03:55:55;9.50;99.90
25346;DHT22;13300;51.032;3.710;2024-02-21T03:58:20;9.40;99.90
25346;DHT22;13300;51.032;3.710;2024-02-21T04:00:46;9.40;99.90
25346;DHT22;13300;51.032;3.710;2024-02-21T04:03:12;9.30;99.90
25346;DHT22;13300;51.032;3.710;2024-02-21T04:05:37;9.40;99.90
25346;DHT22;13300;51.032;3.710;2024-02-21T04:08:05;9.50;99.90
25346;DHT22;13300;51.032;3.710;2024-02-21T04:10:31;9.50;99.90
25346;DHT22;13300;51.032;3.710;2024-02-21T04:12:56;9.40;99.90
25346;DHT22;13300;51.032;3.710;2024-02-21T04:15:22;9.40;99.90
25346;DHT22;13300;51.032;3.710;2024-02-21T04:17:47;9.40;99.90
25346;DHT22;13300;51.032;3.710;2024-02-21T04:20:17;9.40;99.90
25346;DHT22;13300;51.032;3.710;2024-02-21T04:22:46;9.40;99.90
25346;DHT22;13300;51.032;3.710;2024-02-21T04:25:12;9.40;99.90
25346;DHT22;13300;51.032;3.710;2024-02-21T04:27:39;9.30;99.90
25346;DHT22;13300;51.032;3.710;2024-02-21T04:30:06;9.30;99.90
25346;DHT22;13300;51.032;3.710;2024-02-21T04:32:32;9.30;99.90
25346;DHT22;13300;51.032;3.710;2024-02-21T04:34:58;9.30;99.90
25346;DHT22;13300;51.032;3.710;2024-02-21T04:37:24;9.30;99.90
25346;DHT22;13300;51.032;3.710;2024-02-21T04:39:50;9.40;99.90
25346;DHT22;13300;51.032;3.710;2024-02-21T04:42:15;9.40;99.90
25346;DHT22;13300;51.032;3.710;2024-02-21T04:44:41;9.40;99.90
25346;DHT22;13300;51.032;3.710;2024-02-21T04:47:07;9.30;99.90
25346;DHT22;13300;51.032;3.710;2024-02-21T04:49:33;9.20;99.90
25346;DHT22;13300;51.032;3.710;2024-02-21T04:52:00;9.20;99.90
25346;DHT22;13300;51.032;3.710;2024-02-21T04:54:25;9.20;99.90
25346;DHT22;13300;51.032;3.710;2024-02-21T04:56:51;9.20;99.90
25346;DHT22;13300;51.032;3.710;2024-02-21T04:59:17;9.20;99.90
25346;DHT22;13300;51.032;3.710;2024-02-21T05:01:43;9.30;99.90
25346;DHT22;13300;51.032;3.710;2024-02-21T05:04:09;9.40;99.90
25346;DHT22;13300;51.032;3.710;2024-02-21T05:06:38;9.30;99.90
25346;DHT22;13300;51.032;3.710;2024-02-21T05:09:05;9.20;99.90
25346;DHT22;13300;51.032;3.710;2024-02-21T05:11:31;9.20;99.90
25346;DHT22;13300;51.032;3.710;2024-02-21T05:13:56;9.20;99.90
25346;DHT22;13300;51.032;3.710;2024-02-21T05:16:22;9.30;99.90
25346;DHT22;13300;51.032;3.710;2024-02-21T05:18:48;9.30;99.90
25346;DHT22;13300;51.032;3.710;2024-02-21T05:21:14;9.30;99.90
25346;DHT22;13300;51.032;3.710;2024-02-21T05:23:39;9.40;99.90
25346;DHT22;13300;51.032;3.710;2024-02-21T05:26:06;9.30;99.90
25346;DHT22;13300;51.032;3.710;2024-02-21T05:28:32;9.40;99.90
25346;DHT22;13300;51.032;3.710;2024-02-21T05:30:57;9.50;99.90
25346;DHT22;13300;51.032;3.710;2024-02-21T05:33:24;9.60;99.90
25346;DHT22;13300;51.032;3.710;2024-02-21T05:35:50;9.60;99.90
25346;DHT22;13300;51.032;3.710;2024-02-21T05:38:16;9.70;99.90
25346;DHT22;13300;51.032;3.710;2024-02-21T05:40:41;9.70;99.90
25346;DHT22;13300;51.032;3.710;2024-02-21T05:43:08;9.60;99.90
25346;DHT22;13300;51.032;3.710;2024-02-21T05:45:34;9.50;99.90
25346;DHT22;13300;51.032;3.710;2024-02-21T05:48:00;9.40;99.90
25346;DHT22;13300;51.032;3.710;2024-02-21T05:50:26;9.40;99.90
25346;DHT22;13300;51.032;3.710;2024-02-21T05:52:55;9.30;99.90
25346;DHT22;13300;51.032;3.710;2024-02-21T05:55:21;9.20;99.90
25346;DHT22;13300;51.032;3.710;2024-02-21T05:57:47;9.30;99.90
25346;DHT22;13300;51.032;3.710;2024-02-21T06:00:14;9.20;99.90
25346;DHT22;13300;51.032;3.710;2024-02-21T06:02:41;9.10;99.90
25346;DHT22;13300;51.032;3.710;2024-02-21T06:05:07;9.20;99.90
25346;DHT22;13300;51.032;3.710;2024-02-21T06:07:34;9.20;99.90
25346;DHT22;13300;51.032;3.710;2024-02-21T06:10:03;9.30;99.90
25346;DHT22;13300;51.032;3.710;2024-02-21T06:12:29;9.30;99.90
25346;DHT22;13300;51.032;3.710;2024-02-21T06:14:55;9.30;99.90
25346;DHT22;13300;51.032;3.710;2024-02-21T06:17:20;9.20;99.90
25346;DHT22;13300;51.032;3.710;2024-02-21T06:19:46;9.20;99.90
25346;DHT22;13300;51.032;3.710;2024-02-21T06:22:12;9.40;99.90
25346;DHT22;13300;51.032;3.710;2024-02-21T06:24:38;9.30;99.90
25346;DHT22;13300;51.032;3.710;2024-02-21T06:27:05;9.30;99.90
25346;DHT22;13300;51.032;3.710;2024-02-21T06:29:32;9.30;99.90
25346;DHT22;13300;51.032;3.710;2024-02-21T06:31:58;9.30;99.90
25346;DHT22;13300;51.032;3.710;2024-02-21T06:34:23;9.30;99.90
25346;DHT22;13300;51.032;3.710;2024-02-21T06:36:50;9.30;99.90
25346;DHT22;13300;51.032;3.710;2024-02-21T06:39:16;9.30;99.90
25346;DHT22;13300;51.032;3.710;2024-02-21T06:41:42;9.20;99.90
25346;DHT22;13300;51.032;3.710;2024-02-21T06:44:10;9.30;99.90
25346;DHT22;13300;51.032;3.710;2024-02-21T06:46:35;9.40;99.90
25346;DHT22;13300;51.032;3.710;2024-02-21T06:49:02;9.40;99.90
25346;DHT22;13300;51.032;3.710;2024-02-21T06:51:31;9.30;99.90
25346;DHT22;13300;51.032;3.710;2024-02-21T06:53:57;9.30;99.90
25346;DHT22;13300;51.032;3.710;2024-02-21T06:56:24;9.30;99.90
25346;DHT22;13300;51.032;3.710;2024-02-21T06:58:57;9.30;99.90
25346;DHT22;13300;51.032;3.710;2024-02-21T07:01:23;9.30;99.90
25346;DHT22;13300;51.032;3.710;2024-02-21T07:03:49;9.30;99.90
25346;DHT22;13300;51.032;3.710;2024-02-21T07:06:15;9.40;99.90
25346;DHT22;13300;51.032;3.710;2024-02-21T07:08:41;9.50;99.90
25346;DHT22;13300;51.032;3.710;2024-02-21T07:11:06;9.40;99.90
25346;DHT22;13300;51.032;3.710;2024-02-21T07:13:33;9.40;99.90
25346;DHT22;13300;51.032;3.710;2024-02-21T07:15:58;9.40;99.90
25346;DHT22;13300;51.032;3.710;2024-02-21T07:18:24;9.40;99.90
25346;DHT22;13300;51.032;3.710;2024-02-21T07:20:51;9.40;99.90
25346;DHT22;13300;51.032;3.710;2024-02-21T07:23:18;9.40;99.90
25346;DHT22;13300;51.032;3.710;2024-02-21T07:25:44;9.40;99.90
25346;DHT22;13300;51.032;3.710;2024-02-21T07:28:09;9.40;99.90
25346;DHT22;13300;51.032;3.710;2024-02-21T07:30:35;9.40;99.90
25346;DHT22;13300;51.032;3.710;2024-02-21T07:33:01;9.30;99.90
25346;DHT22;13300;51.032;3.710;2024-02-21T07:35:26;9.40;99.90
25346;DHT22;13300;51.032;3.710;2024-02-21T07:37:52;9.40;99.90
25346;DHT22;13300;51.032;3.710;2024-02-21T07:40:18;9.40;99.90
25346;DHT22;13300;51.032;3.710;2024-02-21T07:42:44;9.40;99.90
25346;DHT22;13300;51.032;3.710;2024-02-21T07:45:10;9.40;99.90
25346;DHT22;13300;51.032;3.710;2024-02-21T07:47:36;9.40;99.90
25346;DHT22;13300;51.032;3.710;2024-02-21T07:50:05;9.50;99.90
25346;DHT22;13300;51.032;3.710;2024-02-21T07:52:32;9.50;99.90
25346;DHT22;13300;51.032;3.710;2024-02-21T07:55:17;9.50;99.90
25346;DHT22;13300;51.032;3.710;2024-02-21T07:57:43;9.50;99.90
25346;DHT22;13300;51.032;3.710;2024-02-21T08:00:09;9.50;99.90
25346;DHT22;13300;51.032;3.710;2024-02-21T08:02:39;9.50;99.90
25346;DHT22;13300;51.032;3.710;2024-02-21T08:05:05;9.40;99.90
25346;DHT22;13300;51.032;3.710;2024-02-21T08:07:30;9.50;99.90
25346;DHT22;13300;51.032;3.710;2024-02-21T08:09:56;9.50;99.90
25346;DHT22;13300;51.032;3.710;2024-02-21T08:12:22;9.50;99.90
25346;DHT22;13300;51.032;3.710;2024-02-21T08:14:48;9.50;99.90
25346;DHT22;13300;51.032;3.710;2024-02-21T08:17:13;9.40;99.90
25346;DHT22;13300;51.032;3.710;2024-02-21T08:19:39;9.50;99.90
25346;DHT22;13300;51.032;3.710;2024-02-21T08:22:05;9.50;99.90
25346;DHT22;13300;51.032;3.710;2024-02-21T08:24:31;9.50;99.90
25346;DHT22;13300;51.032;3.710;2024-02-21T08:26:57;9.60;99.90
25346;DHT22;13300;51.032;3.710;2024-02-21T08:29:22;9.50;99.90
25346;DHT22;13300;51.032;3.710;2024-02-21T08:31:48;9.50;99.90
25346;DHT22;13300;51.032;3.710;2024-02-21T08:34:14;9.60;99.90
25346;DHT22;13300;51.032;3.710;2024-02-21T08:36:40;9.50;99.90
25346;DHT22;13300;51.032;3.710;2024-02-21T08:39:06;9.50;99.90
25346;DHT22;13300;51.032;3.710;2024-02-21T08:41:35;9.50;99.90
25346;DHT22;13300;51.032;3.710;2024-02-21T08:44:01;9.50;99.90
25346;DHT22;13300;51.032;3.710;2024-02-21T08:46:27;9.50;99.90
25346;DHT22;13300;51.032;3.710;2024-02-21T08:48:54;9.50;99.90
25346;DHT22;13300;51.032;3.710;2024-02-21T08:51:22;9.50;99.90
25346;DHT22;13300;51.032;3.710;2024-02-21T08:53:48;9.50;99.90
25346;DHT22;13300;51.032;3.710;2024-02-21T08:56:15;9.70;99.90
25346;DHT22;13300;51.032;3.710;2024-02-21T08:58:41;9.60;99.90
25346;DHT22;13300;51.032;3.710;2024-02-21T09:01:07;9.50;99.90
25346;DHT22;13300;51.032;3.710;2024-02-21T09:03:39;9.50;99.90
25346;DHT22;13300;51.032;3.710;2024-02-21T09:06:06;9.60;99.90
25346;DHT22;13300;51.032;3.710;2024-02-21T09:08:32;9.60;99.90
25346;DHT22;13300;51.032;3.710;2024-02-21T09:11:00;9.60;99.90
25346;DHT22;13300;51.032;3.710;2024-02-21T09:13:28;9.60;99.90
25346;DHT22;13300;51.032;3.710;2024-02-21T09:15:54;9.60;99.90
25346;DHT22;13300;51.032;3.710;2024-02-21T09:18:19;9.70;99.90
25346;DHT22;13300;51.032;3.710;2024-02-21T09:20:45;9.80;99.90
25346;DHT22;13300;51.032;3.710;2024-02-21T09:23:11;9.80;99.90
25346;DHT22;13300;51.032;3.710;2024-02-21T09:25:37;9.70;99.90
25346;DHT22;13300;51.032;3.710;2024-02-21T09:28:03;9.80;99.90
25346;DHT22;13300;51.032;3.710;2024-02-21T09:30:31;9.80;99.90
25346;DHT22;13300;51.032;3.710;2024-02-21T09:32:57;9.80;99.90
25346;DHT22;13300;51.032;3.710;2024-02-21T09:35:25;9.80;99.90
25346;DHT22;13300;51.032;3.710;2024-02-21T09:37:52;9.90;99.90
25346;DHT22;13300;51.032;3.710;2024-02-21T09:40:18;9.80;99.90
25346;DHT22;13300;51.032;3.710;2024-02-21T09:42:46;9.70;99.90
25346;DHT22;13300;51.032;3.710;2024-02-21T09:45:23;9.70;99.90
25346;DHT22;13300;51.032;3.710;2024-02-21T09:50:18;9.90;99.90
25346;DHT22;13300;51.032;3.710;2024-02-21T09:52:46;9.90;99.90
25346;DHT22;13300;51.032;3.710;2024-02-21T09:55:14;10.00;99.90
25346;DHT22;13300;51.032;3.710;2024-02-21T09:57:40;10.00;99.90
25346;DHT22;13300;51.032;3.710;2024-02-21T10:00:06;10.10;99.90
25346;DHT22;13300;51.032;3.710;2024-02-21T10:02:34;10.00;99.90
25346;DHT22;13300;51.032;3.710;2024-02-21T10:05:00;9.90;99.90
25346;DHT22;13300;51.032;3.710;2024-02-21T10:07:25;10.00;99.90
25346;DHT22;13300;51.032;3.710;2024-02-21T10:10:04;10.10;99.90
25346;DHT22;13300;51.032;3.710;2024-02-21T10:12:30;10.10;99.90
25346;DHT22;13300;51.032;3.710;2024-02-21T10:15:06;10.10;99.90
25346;DHT22;13300;51.032;3.710;2024-02-21T10:17:35;10.20;99.90
25346;DHT22;13300;51.032;3.710;2024-02-21T10:20:11;10.10;99.90
25346;DHT22;13300;51.032;3.710;2024-02-21T10:22:38;10.20;99.90
25346;DHT22;13300;51.032;3.710;2024-02-21T10:25:11;10.30;99.90
25346;DHT22;13300;51.032;3.710;2024-02-21T10:27:38;10.40;99.90
25346;DHT22;13300;51.032;3.710;2024-02-21T10:30:14;10.50;99.90
25346;DHT22;13300;51.032;3.710;2024-02-21T10:32:55;10.50;99.90
25346;DHT22;13300;51.032;3.710;2024-02-21T10:35:32;10.50;99.90
25346;DHT22;13300;51.032;3.710;2024-02-21T10:37:59;10.30;99.90
25346;DHT22;13300;51.032;3.710;2024-02-21T10:40:26;10.20;99.90
25346;DHT22;13300;51.032;3.710;2024-02-21T10:42:57;10.30;99.90
25346;DHT22;13300;51.032;3.710;2024-02-21T10:45:35;10.30;99.90
25346;DHT22;13300;51.032;3.710;2024-02-21T10:48:14;10.30;99.90
25346;DHT22;13300;51.032;3.710;2024-02-21T10:54:02;10.40;99.90
25346;DHT22;13300;51.032;3.710;2024-02-21T10:56:32;10.30;99.90
25346;DHT22;13300;51.032;3.710;2024-02-21T10:59:03;10.20;99.90
25346;DHT22;13300;51.032;3.710;2024-02-21T11:01:38;10.20;99.90
25346;DHT22;13300;51.032;3.710;2024-02-21T11:04:08;10.20;99.90
25346;DHT22;13300;51.032;3.710;2024-02-21T11:06:38;10.20;99.90
25346;DHT22;13300;51.032;3.710;2024-02-21T11:09:05;10.30;99.90
25346;DHT22;13300;51.032;3.710;2024-02-21T11:11:54;10.30;99.90
25346;DHT22;13300;51.032;3.710;2024-02-21T11:14:21;10.20;99.90
25346;DHT22;13300;51.032;3.710;2024-02-21T11:16:47;10.20;99.90
25346;DHT22;13300;51.032;3.710;2024-02-21T11:19:21;10.20;99.90
25346;DHT22;13300;51.032;3.710;2024-02-21T11:21:53;10.20;99.90
25346;DHT22;13300;51.032;3.710;2024-02-21T11:24:29;10.20;99.90
25346;DHT22;13300;51.032;3.710;2024-02-21T11:27:20;10.30;99.90
25346;DHT22;13300;51.032;3.710;2024-02-21T11:29:54;10.30;99.90
25346;DHT22;13300;51.032;3.710;2024-02-21T11:32:20;10.20;99.90
25346;DHT22;13300;51.032;3.710;2024-02-21T11:35:19;10.30;99.90
25346;DHT22;13300;51.032;3.710;2024-02-21T11:37:44;10.30;99.90
25346;DHT22;13300;51.032;3.710;2024-02-21T11:40:14;10.40;99.90
25346;DHT22;13300;51.032;3.710;2024-02-21T11:42:39;10.30;99.90
25346;DHT22;13300;51.032;3.710;2024-02-21T11:45:06;10.40;99.90
25346;DHT22;13300;51.032;3.710;2024-02-21T11:47:34;10.40;99.90
25346;DHT22;13300;51.032;3.710;2024-02-21T11:50:00;10.30;99.90
25346;DHT22;13300;51.032;3.710;2024-02-21T11:52:28;10.30;99.90
25346;DHT22;13300;51.032;3.710;2024-02-21T11:54:54;10.20;99.90
25346;DHT22;13300;51.032;3.710;2024-02-21T11:57:21;10.30;99.90
25346;DHT22;13300;51.032;3.710;2024-02-21T11:59:47;10.30;99.90
25346;DHT22;13300;51.032;3.710;2024-02-21T12:02:14;10.30;99.90
25346;DHT22;13300;51.032;3.710;2024-02-21T12:04:41;10.40;99.90
25346;DHT22;13300;51.032;3.710;2024-02-21T12:07:07;10.30;99.90
25346;DHT22;13300;51.032;3.710;2024-02-21T12:09:34;10.20;99.90
25346;DHT22;13300;51.032;3.710;2024-02-21T12:12:04;10.20;99.90
25346;DHT22;13300;51.032;3.710;2024-02-21T12:14:35;10.30;99.90
25346;DHT22;13300;51.032;3.710;2024-02-21T12:17:02;10.30;99.90
25346;DHT22;13300;51.032;3.710;2024-02-21T12:19:32;10.30;99.90
25346;DHT22;13300;51.032;3.710;2024-02-21T12:21:59;10.30;99.90
25346;DHT22;13300;51.032;3.710;2024-02-21T12:24:26;10.50;99.90
25346;DHT22;13300;51.032;3.710;2024-02-21T12:26:55;10.60;99.90
25346;DHT22;13300;51.032;3.710;2024-02-21T12:29:22;10.70;99.90
25346;DHT22;13300;51.032;3.710;2024-02-21T12:31:50;10.50;99.90
25346;DHT22;13300;51.032;3.710;2024-02-21T12:34:19;10.50;99.90
25346;DHT22;13300;51.032;3.710;2024-02-21T12:36:45;10.50;99.90
25346;DHT22;13300;51.032;3.710;2024-02-21T12:39:14;10.40;99.90
25346;DHT22;13300;51.032;3.710;2024-02-21T12:41:40;10.40;99.90
25346;DHT22;13300;51.032;3.710;2024-02-21T12:44:08;10.40;99.90
25346;DHT22;13300;51.032;3.710;2024-02-21T12:46:38;10.40;99.90
25346;DHT22;13300;51.032;3.710;2024-02-21T12:49:05;10.40;99.90
25346;DHT22;13300;51.032;3.710;2024-02-21T12:51:33;10.40;99.90
25346;DHT22;13300;51.032;3.710;2024-02-21T12:53:58;10.40;99.90
25346;DHT22;13300;51.032;3.710;2024-02-21T12:56:25;10.50;99.90
25346;DHT22;13300;51.032;3.710;2024-02-21T12:58:52;10.50;99.90
25346;DHT22;13300;51.032;3.710;2024-02-21T13:01:18;10.50;99.90
25346;DHT22;13300;51.032;3.710;2024-02-21T13:03:44;10.50;99.90
25346;DHT22;13300;51.032;3.710;2024-02-21T13:06:12;10.50;99.90
25346;DHT22;13300;51.032;3.710;2024-02-21T13:08:38;10.50;99.90
25346;DHT22;13300;51.032;3.710;2024-02-21T13:11:13;10.50;99.90
25346;DHT22;13300;51.032;3.710;2024-02-21T13:13:38;10.30;99.90
25346;DHT22;13300;51.032;3.710;2024-02-21T13:16:05;10.20;99.90
25346;DHT22;13300;51.032;3.710;2024-02-21T13:18:30;10.10;99.90
25346;DHT22;13300;51.032;3.710;2024-02-21T13:20:58;10.10;99.90
25346;DHT22;13300;51.032;3.710;2024-02-21T13:23:23;10.00;99.90
25346;DHT22;13300;51.032;3.710;2024-02-21T13:25:49;10.00;99.90
25346;DHT22;13300;51.032;3.710;2024-02-21T13:28:16;9.90;99.90
25346;DHT22;13300;51.032;3.710;2024-02-21T13:30:42;9.80;99.90
25346;DHT22;13300;51.032;3.710;2024-02-21T13:33:08;9.80;99.90
25346;DHT22;13300;51.032;3.710;2024-02-21T13:35:35;9.70;99.90
25346;DHT22;13300;51.032;3.710;2024-02-21T13:38:02;9.70;99.90
25346;DHT22;13300;51.032;3.710;2024-02-21T13:40:28;9.80;99.90
25346;DHT22;13300;51.032;3.710;2024-02-21T13:42:56;9.70;99.90
25346;DHT22;13300;51.032;3.710;2024-02-21T13:45:22;9.70;99.90
25346;DHT22;13300;51.032;3.710;2024-02-21T13:47:48;9.80;99.90
25346;DHT22;13300;51.032;3.710;2024-02-21T13:50:14;9.80;99.90
25346;DHT22;13300;51.032;3.710;2024-02-21T13:52:40;9.90;99.90
25346;DHT22;13300;51.032;3.710;2024-02-21T13:55:06;9.80;99.90
25346;DHT22;13300;51.032;3.710;2024-02-21T13:57:38;9.80;99.90
25346;DHT22;13300;51.032;3.710;2024-02-21T14:00:06;9.80;99.90
25346;DHT22;13300;51.032;3.710;2024-02-21T14:02:36;9.70;99.90
25346;DHT22;13300;51.032;3.710;2024-02-21T14:05:02;9.60;99.90
25346;DHT22;13300;51.032;3.710;2024-02-21T14:07:31;9.60;99.90
25346;DHT22;13300;51.032;3.710;2024-02-21T14:09:58;9.50;99.90
25346;DHT22;13300;51.032;3.710;2024-02-21T14:12:24;9.60;99.90
25346;DHT22;13300;51.032;3.710;2024-02-21T14:14:50;9.60;99.90
25346;DHT22;13300;51.032;3.710;2024-02-21T14:17:17;9.60;99.90
25346;DHT22;13300;51.032;3.710;2024-02-21T14:19:43;9.60;99.90
25346;DHT22;13300;51.032;3.710;2024-02-21T14:22:09;9.50;99.90
25346;DHT22;13300;51.032;3.710;2024-02-21T14:24:37;9.50;99.90
25346;DHT22;13300;51.032;3.710;2024-02-21T14:27:02;9.50;99.90
25346;DHT22;13300;51.032;3.710;2024-02-21T14:29:29;9.40;99.90
25346;DHT22;13300;51.032;3.710;2024-02-21T14:31:54;9.50;99.90
25346;DHT22;13300;51.032;3.710;2024-02-21T14:34:20;9.50;99.90
25346;DHT22;13300;51.032;3.710;2024-02-21T14:36:46;9.50;99.90
25346;DHT22;13300;51.032;3.710;2024-02-21T14:39:11;9.40;99.90
25346;DHT22;13300;51.032;3.710;2024-02-21T14:41:37;9.40;99.90
25346;DHT22;13300;51.032;3.710;2024-02-21T14:44:05;9.50;99.90
25346;DHT22;13300;51.032;3.710;2024-02-21T14:46:31;9.50;99.90
25346;DHT22;13300;51.032;3.710;2024-02-21T14:48:57;9.40;99.90
25346;DHT22;13300;51.032;3.710;2024-02-21T14:51:22;9.50;99.90
25346;DHT22;13300;51.032;3.710;2024-02-21T14:53:49;9.40;99.90
25346;DHT22;13300;51.032;3.710;2024-02-21T14:56:15;9.40;99.90
25346;DHT22;13300;51.032;3.710;2024-02-21T14:58:43;9.40;99.90
25346;DHT22;13300;51.032;3.710;2024-02-21T15:01:08;9.40;99.90
25346;DHT22;13300;51.032;3.710;2024-02-21T15:03:35;9.40;99.90
25346;DHT22;13300;51.032;3.710;2024-02-21T15:06:01;9.40;99.90
25346;DHT22;13300;51.032;3.710;2024-02-21T15:08:27;9.40;99.90
25346;DHT22;13300;51.032;3.710;2024-02-21T15:10:53;9.40;99.90
25346;DHT22;13300;51.032;3.710;2024-02-21T15:13:19;9.40;99.90
25346;DHT22;13300;51.032;3.710;2024-02-21T15:15:47;9.40;99.90
25346;DHT22;13300;51.032;3.710;2024-02-21T15:18:14;9.30;99.90
25346;DHT22;13300;51.032;3.710;2024-02-21T15:20:40;9.30;99.90
25346;DHT22;13300;51.032;3.710;2024-02-21T15:23:06;9.30;99.90
25346;DHT22;13300;51.032;3.710;2024-02-21T15:25:32;9.30;99.90
25346;DHT22;13300;51.032;3.710;2024-02-21T15:27:57;9.30;99.90
25346;DHT22;13300;51.032;3.710;2024-02-21T15:30:24;9.30;99.90
25346;DHT22;13300;51.032;3.710;2024-02-21T15:32:50;9.30;99.90
25346;DHT22;13300;51.032;3.710;2024-02-21T15:35:16;9.30;99.90
25346;DHT22;13300;51.032;3.710;2024-02-21T15:37:41;9.20;99.90
25346;DHT22;13300;51.032;3.710;2024-02-21T15:40:08;9.30;99.90
25346;DHT22;13300;51.032;3.710;2024-02-21T15:42:33;9.30;99.90
25346;DHT22;13300;51.032;3.710;2024-02-21T15:44:59;9.30;99.90
25346;DHT22;13300;51.032;3.710;2024-02-21T15:47:32;9.30;99.90